sensor_id;sensor_type;location;lat;lon;timestamp;P1;durP1;ratioP1;P2;durP2;ratioP2
65871;SDS011;52653;50.080;21.992;2022-11-20T00:00:18;101.30;;;53.90;;
65871;SDS011;52653;50.080;21.992;2022-11-20T00:03:10;96.60;;;48.40;;
65871;SDS011;52653;50.080;21.992;2022-11-20T00:05:42;92.60;;;49.30;;
65871;SDS011;52653;50.080;21.992;2022-11-20T00:08:14;84.60;;;46.50;;
65871;SDS011;52653;50.080;21.992;2022-11-20T00:10:46;84.60;;;48.50;;
65871;SDS011;52653;50.080;21.992;2022-11-20T00:13:18;92.80;;;49.60;;
65871;SDS011;52653;50.080;21.992;2022-11-20T00:15:50;100.90;;;54.40;;
65871;SDS011;52653;50.080;21.992;2022-11-20T00:18:28;97.70;;;52.80;;
65871;SDS011;52653;50.080;21.992;2022-11-20T00:21:03;93.20;;;50.50;;
65871;SDS011;52653;50.080;21.992;2022-11-20T00:23:36;98.90;;;53.20;;
65871;SDS011;52653;50.080;21.992;2022-11-20T00:26:08;93.80;;;52.70;;
65871;SDS011;52653;50.080;21.992;2022-11-20T00:28:42;98.10;;;52.40;;
65871;SDS011;52653;50.080;21.992;2022-11-20T00:31:15;97.70;;;53.30;;
65871;SDS011;52653;50.080;21.992;2022-11-20T00:33:47;99.10;;;51.90;;
65871;SDS011;52653;50.080;21.992;2022-11-20T00:36:20;97.90;;;52.20;;
65871;SDS011;52653;50.080;21.992;2022-11-20T00:38:53;93.20;;;48.50;;
65871;SDS011;52653;50.080;21.992;2022-11-20T00:41:26;87.10;;;46.70;;
65871;SDS011;52653;50.080;21.992;2022-11-20T00:43:59;83.80;;;46.00;;
65871;SDS011;52653;50.080;21.992;2022-11-20T00:46:31;81.70;;;45.90;;
65871;SDS011;52653;50.080;21.992;2022-11-20T00:49:03;84.30;;;46.70;;
65871;SDS011;52653;50.080;21.992;2022-11-20T00:51:35;94.80;;;50.70;;
65871;SDS011;52653;50.080;21.992;2022-11-20T00:54:07;85.70;;;47.60;;
65871;SDS011;52653;50.080;21.992;2022-11-20T00:56:39;84.00;;;47.70;;
65871;SDS011;52653;50.080;21.992;2022-11-20T00:59:10;86.00;;;48.30;;
65871;SDS011;52653;50.080;21.992;2022-11-20T01:01:43;89.00;;;51.10;;
65871;SDS011;52653;50.080;21.992;2022-11-20T01:04:15;80.40;;;48.70;;
65871;SDS011;52653;50.080;21.992;2022-11-20T01:06:47;94.80;;;51.50;;
65871;SDS011;52653;50.080;21.992;2022-11-20T01:09:18;93.90;;;51.50;;
65871;SDS011;52653;50.080;21.992;2022-11-20T01:11:51;95.80;;;50.50;;
65871;SDS011;52653;50.080;21.992;2022-11-20T01:14:22;83.10;;;47.30;;
65871;SDS011;52653;50.080;21.992;2022-11-20T01:16:54;87.70;;;48.20;;
65871;SDS011;52653;50.080;21.992;2022-11-20T01:19:26;86.90;;;48.40;;
65871;SDS011;52653;50.080;21.992;2022-11-20T01:21:58;83.60;;;48.40;;
65871;SDS011;52653;50.080;21.992;2022-11-20T01:24:30;78.80;;;46.00;;
65871;SDS011;52653;50.080;21.992;2022-11-20T01:27:02;80.90;;;46.20;;
65871;SDS011;52653;50.080;21.992;2022-11-20T01:29:34;85.80;;;48.10;;
65871;SDS011;52653;50.080;21.992;2022-11-20T01:32:06;86.40;;;50.70;;
65871;SDS011;52653;50.080;21.992;2022-11-20T01:34:37;84.70;;;49.50;;
65871;SDS011;52653;50.080;21.992;2022-11-20T01:37:09;90.90;;;51.10;;
65871;SDS011;52653;50.080;21.992;2022-11-20T01:39:41;86.40;;;46.50;;
65871;SDS011;52653;50.080;21.992;2022-11-20T01:42:13;89.70;;;50.60;;
65871;SDS011;52653;50.080;21.992;2022-11-20T01:48:05;92.70;;;47.00;;
65871;SDS011;52653;50.080;21.992;2022-11-20T01:50:37;91.00;;;49.50;;
65871;SDS011;52653;50.080;21.992;2022-11-20T01:53:11;79.40;;;45.10;;
65871;SDS011;52653;50.080;21.992;2022-11-20T01:55:48;77.60;;;43.50;;
65871;SDS011;52653;50.080;21.992;2022-11-20T01:58:24;77.40;;;42.90;;
65871;SDS011;52653;50.080;21.992;2022-11-20T02:01:00;71.00;;;41.40;;
65871;SDS011;52653;50.080;21.992;2022-11-20T02:03:32;74.40;;;42.70;;
65871;SDS011;52653;50.080;21.992;2022-11-20T02:06:06;78.60;;;43.50;;
65871;SDS011;52653;50.080;21.992;2022-11-20T02:08:42;72.00;;;42.20;;
65871;SDS011;52653;50.080;21.992;2022-11-20T02:11:13;74.20;;;43.50;;
65871;SDS011;52653;50.080;21.992;2022-11-20T02:13:45;81.20;;;46.00;;
65871;SDS011;52653;50.080;21.992;2022-11-20T02:16:21;80.10;;;44.70;;
65871;SDS011;52653;50.080;21.992;2022-11-20T02:18:56;83.20;;;45.00;;
65871;SDS011;52653;50.080;21.992;2022-11-20T02:21:33;82.80;;;45.10;;
65871;SDS011;52653;50.080;21.992;2022-11-20T02:24:10;75.00;;;43.60;;
65871;SDS011;52653;50.080;21.992;2022-11-20T02:26:45;73.80;;;43.50;;
65871;SDS011;52653;50.080;21.992;2022-11-20T02:29:23;70.30;;;39.80;;
65871;SDS011;52653;50.080;21.992;2022-11-20T02:31:56;74.70;;;43.50;;
65871;SDS011;52653;50.080;21.992;2022-11-20T02:34:30;72.60;;;41.00;;
65871;SDS011;52653;50.080;21.992;2022-11-20T02:37:02;63.70;;;37.20;;
65871;SDS011;52653;50.080;21.992;2022-11-20T02:39:34;67.50;;;37.80;;
65871;SDS011;52653;50.080;21.992;2022-11-20T02:42:06;62.20;;;36.80;;
65871;SDS011;52653;50.080;21.992;2022-11-20T02:44:38;63.60;;;37.50;;
65871;SDS011;52653;50.080;21.992;2022-11-20T02:47:10;63.80;;;38.10;;
65871;SDS011;52653;50.080;21.992;2022-11-20T02:49:42;64.20;;;39.20;;
65871;SDS011;52653;50.080;21.992;2022-11-20T02:52:13;66.30;;;40.70;;
65871;SDS011;52653;50.080;21.992;2022-11-20T02:54:45;72.00;;;41.80;;
65871;SDS011;52653;50.080;21.992;2022-11-20T02:57:17;73.30;;;42.40;;
65871;SDS011;52653;50.080;21.992;2022-11-20T02:59:49;71.60;;;41.20;;
65871;SDS011;52653;50.080;21.992;2022-11-20T03:02:21;68.90;;;39.50;;
65871;SDS011;52653;50.080;21.992;2022-11-20T03:04:53;69.60;;;39.40;;
65871;SDS011;52653;50.080;21.992;2022-11-20T03:07:25;68.90;;;38.00;;
65871;SDS011;52653;50.080;21.992;2022-11-20T03:09:57;69.80;;;39.60;;
65871;SDS011;52653;50.080;21.992;2022-11-20T03:12:29;65.70;;;38.60;;
65871;SDS011;52653;50.080;21.992;2022-11-20T03:15:01;62.90;;;35.40;;
65871;SDS011;52653;50.080;21.992;2022-11-20T03:17:33;64.80;;;36.70;;
65871;SDS011;52653;50.080;21.992;2022-11-20T03:20:06;62.60;;;36.10;;
65871;SDS011;52653;50.080;21.992;2022-11-20T03:22:41;64.50;;;39.10;;
65871;SDS011;52653;50.080;21.992;2022-11-20T03:25:13;62.70;;;36.40;;
65871;SDS011;52653;50.080;21.992;2022-11-20T03:27:45;65.00;;;36.90;;
65871;SDS011;52653;50.080;21.992;2022-11-20T03:30:16;66.30;;;39.20;;
65871;SDS011;52653;50.080;21.992;2022-11-20T03:32:48;73.10;;;42.20;;
65871;SDS011;52653;50.080;21.992;2022-11-20T03:35:22;76.40;;;43.40;;
65871;SDS011;52653;50.080;21.992;2022-11-20T03:37:54;76.40;;;41.30;;
65871;SDS011;52653;50.080;21.992;2022-11-20T03:40:27;67.50;;;38.40;;
65871;SDS011;52653;50.080;21.992;2022-11-20T03:42:58;68.80;;;36.70;;
65871;SDS011;52653;50.080;21.992;2022-11-20T03:45:30;72.80;;;39.90;;
65871;SDS011;52653;50.080;21.992;2022-11-20T03:48:02;73.50;;;40.40;;
65871;SDS011;52653;50.080;21.992;2022-11-20T03:50:35;74.40;;;41.60;;
65871;SDS011;52653;50.080;21.992;2022-11-20T03:53:06;69.90;;;40.70;;
65871;SDS011;52653;50.080;21.992;2022-11-20T03:55:38;73.70;;;41.50;;
65871;SDS011;52653;50.080;21.992;2022-11-20T03:58:10;66.50;;;37.70;;
65871;SDS011;52653;50.080;21.992;2022-11-20T04:00:42;75.90;;;40.70;;
65871;SDS011;52653;50.080;21.992;2022-11-20T04:03:14;75.50;;;40.80;;
65871;SDS011;52653;50.080;21.992;2022-11-20T04:05:46;73.80;;;41.80;;
65871;SDS011;52653;50.080;21.992;2022-11-20T04:08:18;75.50;;;42.20;;
65871;SDS011;52653;50.080;21.992;2022-11-20T04:10:49;76.90;;;43.40;;
65871;SDS011;52653;50.080;21.992;2022-11-20T04:13:21;69.80;;;41.20;;
65871;SDS011;52653;50.080;21.992;2022-11-20T04:15:56;71.00;;;38.70;;
65871;SDS011;52653;50.080;21.992;2022-11-20T04:18:28;81.10;;;44.80;;
65871;SDS011;52653;50.080;21.992;2022-11-20T04:21:00;71.50;;;41.00;;
65871;SDS011;52653;50.080;21.992;2022-11-20T04:23:32;70.10;;;39.80;;
65871;SDS011;52653;50.080;21.992;2022-11-20T04:26:05;71.20;;;41.00;;
65871;SDS011;52653;50.080;21.992;2022-11-20T04:28:39;72.20;;;41.20;;
65871;SDS011;52653;50.080;21.992;2022-11-20T04:31:11;68.00;;;39.60;;
65871;SDS011;52653;50.080;21.992;2022-11-20T04:33:45;68.60;;;41.40;;
65871;SDS011;52653;50.080;21.992;2022-11-20T04:36:18;80.20;;;44.60;;
65871;SDS011;52653;50.080;21.992;2022-11-20T04:38:51;86.00;;;45.70;;
65871;SDS011;52653;50.080;21.992;2022-11-20T04:41:26;103.20;;;49.80;;
65871;SDS011;52653;50.080;21.992;2022-11-20T04:43:59;69.70;;;39.80;;
65871;SDS011;52653;50.080;21.992;2022-11-20T04:46:33;66.70;;;39.30;;
65871;SDS011;52653;50.080;21.992;2022-11-20T04:49:07;79.50;;;44.20;;
65871;SDS011;52653;50.080;21.992;2022-11-20T04:51:40;75.10;;;43.80;;
65871;SDS011;52653;50.080;21.992;2022-11-20T04:54:12;79.30;;;42.80;;
65871;SDS011;52653;50.080;21.992;2022-11-20T04:56:45;84.30;;;43.90;;
65871;SDS011;52653;50.080;21.992;2022-11-20T04:59:18;72.70;;;40.70;;
65871;SDS011;52653;50.080;21.992;2022-11-20T05:01:51;66.30;;;38.90;;
65871;SDS011;52653;50.080;21.992;2022-11-20T05:04:23;67.30;;;38.30;;
65871;SDS011;52653;50.080;21.992;2022-11-20T05:06:55;61.60;;;35.90;;
65871;SDS011;52653;50.080;21.992;2022-11-20T05:09:27;62.10;;;37.10;;
65871;SDS011;52653;50.080;21.992;2022-11-20T05:11:59;60.40;;;35.60;;
65871;SDS011;52653;50.080;21.992;2022-11-20T05:14:31;60.90;;;36.30;;
65871;SDS011;52653;50.080;21.992;2022-11-20T05:17:03;55.40;;;34.70;;
65871;SDS011;52653;50.080;21.992;2022-11-20T05:19:34;54.00;;;32.90;;
65871;SDS011;52653;50.080;21.992;2022-11-20T05:22:06;52.10;;;31.10;;
65871;SDS011;52653;50.080;21.992;2022-11-20T05:24:38;53.80;;;31.70;;
65871;SDS011;52653;50.080;21.992;2022-11-20T05:27:10;55.20;;;32.70;;
65871;SDS011;52653;50.080;21.992;2022-11-20T05:29:42;53.50;;;31.50;;
65871;SDS011;52653;50.080;21.992;2022-11-20T05:32:16;51.30;;;31.20;;
65871;SDS011;52653;50.080;21.992;2022-11-20T05:34:48;54.10;;;32.00;;
65871;SDS011;52653;50.080;21.992;2022-11-20T05:37:19;54.30;;;31.90;;
65871;SDS011;52653;50.080;21.992;2022-11-20T05:39:51;47.40;;;30.20;;
65871;SDS011;52653;50.080;21.992;2022-11-20T05:42:23;48.50;;;31.00;;
65871;SDS011;52653;50.080;21.992;2022-11-20T05:45:02;48.30;;;29.20;;
65871;SDS011;52653;50.080;21.992;2022-11-20T05:47:34;51.30;;;30.60;;
65871;SDS011;52653;50.080;21.992;2022-11-20T05:50:07;46.40;;;30.20;;
65871;SDS011;52653;50.080;21.992;2022-11-20T05:52:39;48.30;;;27.60;;
65871;SDS011;52653;50.080;21.992;2022-11-20T05:55:11;48.10;;;30.50;;
65871;SDS011;52653;50.080;21.992;2022-11-20T05:57:43;51.60;;;28.90;;
65871;SDS011;52653;50.080;21.992;2022-11-20T06:00:15;46.30;;;28.60;;
65871;SDS011;52653;50.080;21.992;2022-11-20T06:02:48;47.20;;;27.40;;
65871;SDS011;52653;50.080;21.992;2022-11-20T06:05:20;43.10;;;27.30;;
65871;SDS011;52653;50.080;21.992;2022-11-20T06:07:52;46.70;;;27.60;;
65871;SDS011;52653;50.080;21.992;2022-11-20T06:10:24;46.10;;;28.30;;
65871;SDS011;52653;50.080;21.992;2022-11-20T06:12:58;44.80;;;28.80;;
65871;SDS011;52653;50.080;21.992;2022-11-20T06:15:30;48.70;;;28.80;;
65871;SDS011;52653;50.080;21.992;2022-11-20T06:18:01;46.80;;;30.20;;
65871;SDS011;52653;50.080;21.992;2022-11-20T06:20:33;47.50;;;28.20;;
65871;SDS011;52653;50.080;21.992;2022-11-20T06:23:10;47.70;;;28.80;;
65871;SDS011;52653;50.080;21.992;2022-11-20T06:25:42;50.30;;;29.90;;
65871;SDS011;52653;50.080;21.992;2022-11-20T06:28:14;52.50;;;30.00;;
65871;SDS011;52653;50.080;21.992;2022-11-20T06:30:46;46.10;;;28.80;;
65871;SDS011;52653;50.080;21.992;2022-11-20T06:33:18;45.80;;;27.40;;
65871;SDS011;52653;50.080;21.992;2022-11-20T06:35:50;44.70;;;27.60;;
65871;SDS011;52653;50.080;21.992;2022-11-20T06:38:28;48.10;;;28.20;;
65871;SDS011;52653;50.080;21.992;2022-11-20T06:41:00;48.80;;;28.50;;
65871;SDS011;52653;50.080;21.992;2022-11-20T06:43:33;49.70;;;29.50;;
65871;SDS011;52653;50.080;21.992;2022-11-20T06:46:05;47.30;;;27.20;;
65871;SDS011;52653;50.080;21.992;2022-11-20T06:48:37;48.70;;;28.40;;
65871;SDS011;52653;50.080;21.992;2022-11-20T06:51:09;51.10;;;32.10;;
65871;SDS011;52653;50.080;21.992;2022-11-20T06:53:41;54.80;;;32.40;;
65871;SDS011;52653;50.080;21.992;2022-11-20T06:56:13;50.60;;;30.50;;
65871;SDS011;52653;50.080;21.992;2022-11-20T06:58:44;51.90;;;31.90;;
65871;SDS011;52653;50.080;21.992;2022-11-20T07:01:17;49.20;;;30.70;;
65871;SDS011;52653;50.080;21.992;2022-11-20T07:03:49;52.20;;;32.30;;
65871;SDS011;52653;50.080;21.992;2022-11-20T07:06:22;54.20;;;33.00;;
65871;SDS011;52653;50.080;21.992;2022-11-20T07:08:54;53.30;;;32.50;;
65871;SDS011;52653;50.080;21.992;2022-11-20T07:11:26;61.70;;;36.10;;
65871;SDS011;52653;50.080;21.992;2022-11-20T07:13:58;65.90;;;39.20;;
65871;SDS011;52653;50.080;21.992;2022-11-20T07:16:29;67.80;;;40.10;;
65871;SDS011;52653;50.080;21.992;2022-11-20T07:19:01;68.80;;;40.90;;
65871;SDS011;52653;50.080;21.992;2022-11-20T07:21:33;67.60;;;39.80;;
65871;SDS011;52653;50.080;21.992;2022-11-20T07:24:05;65.90;;;38.40;;
65871;SDS011;52653;50.080;21.992;2022-11-20T07:26:37;61.90;;;34.70;;
65871;SDS011;52653;50.080;21.992;2022-11-20T07:29:09;57.60;;;34.70;;
65871;SDS011;52653;50.080;21.992;2022-11-20T07:31:41;59.30;;;35.40;;
65871;SDS011;52653;50.080;21.992;2022-11-20T07:34:16;57.70;;;35.10;;
65871;SDS011;52653;50.080;21.992;2022-11-20T07:36:48;62.30;;;37.60;;
65871;SDS011;52653;50.080;21.992;2022-11-20T07:39:20;67.30;;;41.80;;
65871;SDS011;52653;50.080;21.992;2022-11-20T07:41:52;72.60;;;45.10;;
65871;SDS011;52653;50.080;21.992;2022-11-20T07:44:24;71.90;;;44.10;;
65871;SDS011;52653;50.080;21.992;2022-11-20T07:46:56;85.60;;;50.00;;
65871;SDS011;52653;50.080;21.992;2022-11-20T07:49:28;74.40;;;45.30;;
65871;SDS011;52653;50.080;21.992;2022-11-20T07:52:00;84.20;;;49.10;;
65871;SDS011;52653;50.080;21.992;2022-11-20T07:54:33;73.30;;;44.20;;
65871;SDS011;52653;50.080;21.992;2022-11-20T07:57:05;67.20;;;41.70;;
65871;SDS011;52653;50.080;21.992;2022-11-20T07:59:36;66.20;;;41.30;;
65871;SDS011;52653;50.080;21.992;2022-11-20T08:02:10;69.00;;;44.10;;
65871;SDS011;52653;50.080;21.992;2022-11-20T08:04:42;69.70;;;44.20;;
65871;SDS011;52653;50.080;21.992;2022-11-20T08:07:14;75.40;;;48.80;;
65871;SDS011;52653;50.080;21.992;2022-11-20T08:09:48;80.50;;;49.30;;
65871;SDS011;52653;50.080;21.992;2022-11-20T08:12:20;69.30;;;43.30;;
65871;SDS011;52653;50.080;21.992;2022-11-20T08:15:10;66.20;;;42.70;;
65871;SDS011;52653;50.080;21.992;2022-11-20T08:17:42;70.90;;;43.60;;
65871;SDS011;52653;50.080;21.992;2022-11-20T08:20:34;97.70;;;55.00;;
65871;SDS011;52653;50.080;21.992;2022-11-20T08:23:06;118.00;;;60.50;;
65871;SDS011;52653;50.080;21.992;2022-11-20T08:25:40;68.60;;;39.20;;
65871;SDS011;52653;50.080;21.992;2022-11-20T08:28:12;65.00;;;39.00;;
65871;SDS011;52653;50.080;21.992;2022-11-20T08:30:49;49.50;;;31.10;;
65871;SDS011;52653;50.080;21.992;2022-11-20T08:33:27;43.90;;;29.10;;
65871;SDS011;52653;50.080;21.992;2022-11-20T08:36:02;44.70;;;28.70;;
65871;SDS011;52653;50.080;21.992;2022-11-20T08:38:34;53.30;;;33.80;;
65871;SDS011;52653;50.080;21.992;2022-11-20T08:41:07;61.90;;;39.90;;
65871;SDS011;52653;50.080;21.992;2022-11-20T08:43:55;61.50;;;39.10;;
65871;SDS011;52653;50.080;21.992;2022-11-20T08:46:31;66.70;;;43.70;;
65871;SDS011;52653;50.080;21.992;2022-11-20T08:49:05;61.80;;;40.50;;
65871;SDS011;52653;50.080;21.992;2022-11-20T08:51:38;65.70;;;40.70;;
65871;SDS011;52653;50.080;21.992;2022-11-20T08:54:11;63.20;;;40.80;;
65871;SDS011;52653;50.080;21.992;2022-11-20T08:56:43;62.50;;;42.10;;
65871;SDS011;52653;50.080;21.992;2022-11-20T08:59:15;55.60;;;37.50;;
65871;SDS011;52653;50.080;21.992;2022-11-20T09:02:07;51.80;;;33.70;;
65871;SDS011;52653;50.080;21.992;2022-11-20T09:04:39;49.80;;;34.20;;
65871;SDS011;52653;50.080;21.992;2022-11-20T09:07:11;49.50;;;32.20;;
65871;SDS011;52653;50.080;21.992;2022-11-20T09:09:43;49.70;;;33.30;;
65871;SDS011;52653;50.080;21.992;2022-11-20T09:12:35;50.70;;;33.10;;
65871;SDS011;52653;50.080;21.992;2022-11-20T09:15:07;48.70;;;31.90;;
65871;SDS011;52653;50.080;21.992;2022-11-20T09:17:40;50.80;;;33.80;;
65871;SDS011;52653;50.080;21.992;2022-11-20T09:22:45;44.50;;;29.80;;
65871;SDS011;52653;50.080;21.992;2022-11-20T09:25:17;47.50;;;30.10;;
65871;SDS011;52653;50.080;21.992;2022-11-20T09:27:54;47.10;;;30.90;;
65871;SDS011;52653;50.080;21.992;2022-11-20T09:30:27;47.40;;;30.00;;
65871;SDS011;52653;50.080;21.992;2022-11-20T09:33:00;45.70;;;30.30;;
65871;SDS011;52653;50.080;21.992;2022-11-20T09:35:34;46.40;;;31.00;;
65871;SDS011;52653;50.080;21.992;2022-11-20T09:38:06;44.80;;;29.60;;
65871;SDS011;52653;50.080;21.992;2022-11-20T09:40:40;47.60;;;31.30;;
65871;SDS011;52653;50.080;21.992;2022-11-20T09:43:18;44.50;;;29.70;;
65871;SDS011;52653;50.080;21.992;2022-11-20T09:46:04;42.80;;;28.60;;
65871;SDS011;52653;50.080;21.992;2022-11-20T09:48:47;40.80;;;27.00;;
65871;SDS011;52653;50.080;21.992;2022-11-20T09:51:33;41.00;;;27.10;;
65871;SDS011;52653;50.080;21.992;2022-11-20T09:54:16;43.80;;;29.90;;
65871;SDS011;52653;50.080;21.992;2022-11-20T09:56:50;42.10;;;29.30;;
65871;SDS011;52653;50.080;21.992;2022-11-20T09:59:29;47.20;;;32.40;;
65871;SDS011;52653;50.080;21.992;2022-11-20T10:02:12;50.70;;;34.00;;
65871;SDS011;52653;50.080;21.992;2022-11-20T10:04:51;58.70;;;37.40;;
65871;SDS011;52653;50.080;21.992;2022-11-20T10:07:30;56.20;;;37.10;;
65871;SDS011;52653;50.080;21.992;2022-11-20T10:10:14;56.10;;;38.40;;
65871;SDS011;52653;50.080;21.992;2022-11-20T10:12:53;59.50;;;41.60;;
65871;SDS011;52653;50.080;21.992;2022-11-20T10:15:38;69.80;;;45.70;;
65871;SDS011;52653;50.080;21.992;2022-11-20T10:18:21;71.60;;;48.50;;
65871;SDS011;52653;50.080;21.992;2022-11-20T10:21:07;72.80;;;48.10;;
65871;SDS011;52653;50.080;21.992;2022-11-20T10:23:50;65.70;;;42.20;;
65871;SDS011;52653;50.080;21.992;2022-11-20T10:26:34;67.30;;;43.90;;
65871;SDS011;52653;50.080;21.992;2022-11-20T10:29:12;60.60;;;42.20;;
65871;SDS011;52653;50.080;21.992;2022-11-20T10:31:46;62.40;;;43.60;;
65871;SDS011;52653;50.080;21.992;2022-11-20T10:34:25;59.90;;;40.10;;
65871;SDS011;52653;50.080;21.992;2022-11-20T10:37:04;61.50;;;41.50;;
65871;SDS011;52653;50.080;21.992;2022-11-20T10:39:41;60.60;;;41.70;;
65871;SDS011;52653;50.080;21.992;2022-11-20T10:42:23;58.70;;;38.70;;
65871;SDS011;52653;50.080;21.992;2022-11-20T10:45:01;60.80;;;40.90;;
65871;SDS011;52653;50.080;21.992;2022-11-20T10:47:41;66.10;;;46.60;;
65871;SDS011;52653;50.080;21.992;2022-11-20T10:50:14;65.10;;;42.90;;
65871;SDS011;52653;50.080;21.992;2022-11-20T10:52:53;71.90;;;46.10;;
65871;SDS011;52653;50.080;21.992;2022-11-20T10:55:40;70.10;;;45.80;;
65871;SDS011;52653;50.080;21.992;2022-11-20T10:58:18;73.00;;;41.80;;
65871;SDS011;52653;50.080;21.992;2022-11-20T11:01:04;68.60;;;43.30;;
65871;SDS011;52653;50.080;21.992;2022-11-20T11:03:44;69.00;;;43.40;;
65871;SDS011;52653;50.080;21.992;2022-11-20T11:06:17;69.70;;;43.50;;
65871;SDS011;52653;50.080;21.992;2022-11-20T11:08:56;72.10;;;43.70;;
65871;SDS011;52653;50.080;21.992;2022-11-20T11:11:34;66.90;;;46.00;;
65871;SDS011;52653;50.080;21.992;2022-11-20T11:14:09;75.40;;;46.50;;
65871;SDS011;52653;50.080;21.992;2022-11-20T11:16:50;76.10;;;47.70;;
65871;SDS011;52653;50.080;21.992;2022-11-20T11:19:23;76.60;;;50.70;;
65871;SDS011;52653;50.080;21.992;2022-11-20T11:21:55;74.40;;;49.40;;
65871;SDS011;52653;50.080;21.992;2022-11-20T11:24:28;73.20;;;49.10;;
65871;SDS011;52653;50.080;21.992;2022-11-20T11:27:16;68.30;;;44.30;;
65871;SDS011;52653;50.080;21.992;2022-11-20T11:29:49;65.20;;;42.90;;
65871;SDS011;52653;50.080;21.992;2022-11-20T11:32:31;64.60;;;42.70;;
65871;SDS011;52653;50.080;21.992;2022-11-20T11:35:04;59.60;;;40.70;;
65871;SDS011;52653;50.080;21.992;2022-11-20T11:37:48;62.60;;;40.40;;
65871;SDS011;52653;50.080;21.992;2022-11-20T11:40:23;60.60;;;41.20;;
65871;SDS011;52653;50.080;21.992;2022-11-20T11:42:59;61.40;;;40.80;;
65871;SDS011;52653;50.080;21.992;2022-11-20T11:45:55;54.90;;;36.70;;
65871;SDS011;52653;50.080;21.992;2022-11-20T11:48:27;58.20;;;37.30;;
65871;SDS011;52653;50.080;21.992;2022-11-20T11:50:59;61.80;;;39.60;;
65871;SDS011;52653;50.080;21.992;2022-11-20T11:53:31;57.40;;;38.50;;
65871;SDS011;52653;50.080;21.992;2022-11-20T11:56:11;54.50;;;37.50;;
65871;SDS011;52653;50.080;21.992;2022-11-20T11:58:45;53.60;;;36.10;;
65871;SDS011;52653;50.080;21.992;2022-11-20T12:01:23;61.20;;;38.10;;
65871;SDS011;52653;50.080;21.992;2022-11-20T12:04:04;55.50;;;36.60;;
65871;SDS011;52653;50.080;21.992;2022-11-20T12:06:44;61.40;;;39.70;;
65871;SDS011;52653;50.080;21.992;2022-11-20T12:09:20;61.50;;;42.50;;
65871;SDS011;52653;50.080;21.992;2022-11-20T12:12:02;68.50;;;43.30;;
65871;SDS011;52653;50.080;21.992;2022-11-20T12:14:40;70.20;;;47.00;;
65871;SDS011;52653;50.080;21.992;2022-11-20T12:17:15;70.70;;;45.10;;
65871;SDS011;52653;50.080;21.992;2022-11-20T12:19:47;64.60;;;42.20;;
65871;SDS011;52653;50.080;21.992;2022-11-20T12:22:22;72.50;;;45.80;;
65871;SDS011;52653;50.080;21.992;2022-11-20T12:25:06;74.70;;;46.60;;
65871;SDS011;52653;50.080;21.992;2022-11-20T12:27:47;72.10;;;44.60;;
65871;SDS011;52653;50.080;21.992;2022-11-20T12:30:41;72.00;;;45.10;;
65871;SDS011;52653;50.080;21.992;2022-11-20T12:33:34;72.40;;;46.50;;
65871;SDS011;52653;50.080;21.992;2022-11-20T12:36:19;71.10;;;44.40;;
65871;SDS011;52653;50.080;21.992;2022-11-20T12:39:06;61.80;;;39.20;;
65871;SDS011;52653;50.080;21.992;2022-11-20T12:41:48;61.30;;;39.70;;
65871;SDS011;52653;50.080;21.992;2022-11-20T12:44:59;70.20;;;44.90;;
65871;SDS011;52653;50.080;21.992;2022-11-20T12:47:45;73.30;;;45.50;;
65871;SDS011;52653;50.080;21.992;2022-11-20T12:50:28;72.30;;;46.40;;
65871;SDS011;52653;50.080;21.992;2022-11-20T12:53:30;73.80;;;45.80;;
65871;SDS011;52653;50.080;21.992;2022-11-20T12:56:14;71.80;;;46.40;;
65871;SDS011;52653;50.080;21.992;2022-11-20T12:59:00;71.00;;;46.50;;
65871;SDS011;52653;50.080;21.992;2022-11-20T13:01:44;75.20;;;45.70;;
65871;SDS011;52653;50.080;21.992;2022-11-20T13:04:32;69.40;;;43.30;;
65871;SDS011;52653;50.080;21.992;2022-11-20T13:07:23;63.90;;;40.20;;
65871;SDS011;52653;50.080;21.992;2022-11-20T13:09:58;63.00;;;39.40;;
65871;SDS011;52653;50.080;21.992;2022-11-20T13:12:31;66.40;;;43.60;;
65871;SDS011;52653;50.080;21.992;2022-11-20T13:15:13;67.40;;;44.00;;
65871;SDS011;52653;50.080;21.992;2022-11-20T13:18:02;69.50;;;42.70;;
65871;SDS011;52653;50.080;21.992;2022-11-20T13:20:42;62.60;;;41.20;;
65871;SDS011;52653;50.080;21.992;2022-11-20T13:23:24;65.10;;;41.10;;
65871;SDS011;52653;50.080;21.992;2022-11-20T13:26:04;57.60;;;35.80;;
65871;SDS011;52653;50.080;21.992;2022-11-20T13:28:45;59.50;;;38.40;;
65871;SDS011;52653;50.080;21.992;2022-11-20T13:31:30;61.80;;;35.80;;
65871;SDS011;52653;50.080;21.992;2022-11-20T13:34:04;57.20;;;34.30;;
65871;SDS011;52653;50.080;21.992;2022-11-20T13:36:37;54.00;;;33.30;;
65871;SDS011;52653;50.080;21.992;2022-11-20T13:39:30;55.10;;;33.60;;
65871;SDS011;52653;50.080;21.992;2022-11-20T13:42:18;45.90;;;30.40;;
65871;SDS011;52653;50.080;21.992;2022-11-20T13:45:00;51.20;;;33.10;;
65871;SDS011;52653;50.080;21.992;2022-11-20T13:47:46;51.20;;;32.60;;
65871;SDS011;52653;50.080;21.992;2022-11-20T13:50:19;53.80;;;34.60;;
65871;SDS011;52653;50.080;21.992;2022-11-20T13:53:13;51.70;;;34.70;;
65871;SDS011;52653;50.080;21.992;2022-11-20T13:56:01;53.50;;;35.90;;
65871;SDS011;52653;50.080;21.992;2022-11-20T13:58:47;57.00;;;36.30;;
65871;SDS011;52653;50.080;21.992;2022-11-20T14:01:31;56.20;;;34.10;;
65871;SDS011;52653;50.080;21.992;2022-11-20T14:04:07;51.80;;;33.40;;
65871;SDS011;52653;50.080;21.992;2022-11-20T14:06:45;55.10;;;33.50;;
65871;SDS011;52653;50.080;21.992;2022-11-20T14:09:26;52.60;;;35.40;;
65871;SDS011;52653;50.080;21.992;2022-11-20T14:11:59;55.10;;;33.00;;
65871;SDS011;52653;50.080;21.992;2022-11-20T14:14:33;59.40;;;35.40;;
65871;SDS011;52653;50.080;21.992;2022-11-20T14:17:06;62.30;;;39.30;;
65871;SDS011;52653;50.080;21.992;2022-11-20T14:19:47;62.20;;;40.20;;
65871;SDS011;52653;50.080;21.992;2022-11-20T14:22:22;68.00;;;42.40;;
65871;SDS011;52653;50.080;21.992;2022-11-20T14:25:02;65.20;;;40.80;;
65871;SDS011;52653;50.080;21.992;2022-11-20T14:27:37;65.90;;;41.40;;
65871;SDS011;52653;50.080;21.992;2022-11-20T14:30:14;64.40;;;39.50;;
65871;SDS011;52653;50.080;21.992;2022-11-20T14:32:48;60.40;;;34.80;;
65871;SDS011;52653;50.080;21.992;2022-11-20T14:35:24;59.90;;;35.80;;
65871;SDS011;52653;50.080;21.992;2022-11-20T14:37:59;47.20;;;29.90;;
65871;SDS011;52653;50.080;21.992;2022-11-20T14:40:34;51.00;;;30.80;;
65871;SDS011;52653;50.080;21.992;2022-11-20T14:43:16;50.00;;;30.70;;
65871;SDS011;52653;50.080;21.992;2022-11-20T14:45:56;46.90;;;29.90;;
65871;SDS011;52653;50.080;21.992;2022-11-20T14:48:30;46.40;;;27.80;;
65871;SDS011;52653;50.080;21.992;2022-11-20T14:51:09;46.20;;;27.50;;
65871;SDS011;52653;50.080;21.992;2022-11-20T14:53:41;53.70;;;30.60;;
65871;SDS011;52653;50.080;21.992;2022-11-20T14:56:13;50.40;;;31.50;;
65871;SDS011;52653;50.080;21.992;2022-11-20T14:58:56;53.30;;;31.10;;
65871;SDS011;52653;50.080;21.992;2022-11-20T15:01:29;52.40;;;32.00;;